Time;durP1;ratioP1;P1;durP2;ratioP2;P2;SDS_P1;SDS_P2;PMS_P1;PMS_P2;Temp;Humidity;BMP_temperature;BMP_pressure;BME280_temperature;BME280_humidity;BME280_pressure;Samples;Min_cycle;Max_cycle;Signal;HPM_P1;HPM_P2
2022/03/27 00:02:18;;;;;;;31.37;13.00;;;;;;;9.16;41.59;95648.25;5015955;28;20191;-81
2022/03/27 00:04:45;;;;;;;31.67;13.13;;;;;;;9.12;41.74;95653.00;5020316;28;20680;-80
2022/03/27 00:07:27;;;;;;;30.20;12.90;;;;;;;9.18;41.48;95652.28;5025268;28;20223;-84
2022/03/27 00:09:54;;;;;;;24.47;11.83;;;;;;;8.96;42.32;95622.94;5019193;28;20206;-83
2022/03/27 00:12:21;;;;;;;33.70;13.07;;;;;;;9.09;42.21;95649.00;5021196;28;20682;-85
2022/03/27 00:14:48;;;;;;;26.73;12.70;;;;;;;9.00;42.59;95629.34;5023125;28;20280;-85
2022/03/27 00:17:14;;;;;;;29.27;12.57;;;;;;;9.04;42.99;95628.00;5018992;28;20215;-83
2022/03/27 00:19:43;;;;;;;41.67;14.57;;;;;;;8.82;42.62;95625.56;5021424;28;20690;-82
2022/03/27 00:22:13;;;;;;;26.10;12.37;;;;;;;8.43;44.37;95631.09;5017226;28;20194;-81
2022/03/27 00:24:40;;;;;;;33.23;13.00;;;;;;;8.02;45.41;95635.91;5018446;28;20199;-81
2022/03/27 00:27:07;;;;;;;25.83;13.07;;;;;;;7.82;45.82;95620.06;5020958;28;20200;-82
2022/03/27 00:29:34;;;;;;;29.63;13.17;;;;;;;7.97;45.64;95620.88;5018534;28;20746;-82
2022/03/27 00:32:05;;;;;;;29.97;12.47;;;;;;;8.15;44.94;95632.69;5022808;28;20332;-81
2022/03/27 00:34:32;;;;;;;32.90;13.03;;;;;;;8.13;45.39;95613.94;5019301;28;20792;-82
2022/03/27 00:37:01;;;;;;;30.30;13.53;;;;;;;8.33;45.81;95633.16;5020683;28;20231;-82
2022/03/27 00:39:27;;;;;;;40.37;14.17;;;;;;;8.33;45.68;95623.59;5019262;28;20203;-81
2022/03/27 00:42:00;;;;;;;33.37;14.47;;;;;;;8.34;45.34;95621.81;5023948;28;20214;-82
2022/03/27 00:44:27;;;;;;;33.97;16.27;;;;;;;8.31;45.85;95612.59;5020083;28;20201;-83
2022/03/27 00:46:54;;;;;;;37.93;15.67;;;;;;;8.25;45.85;95613.31;5026511;28;20210;-82
2022/03/27 00:49:21;;;;;;;38.90;18.53;;;;;;;8.28;45.42;95605.19;5022522;28;20234;-81
2022/03/27 00:51:48;;;;;;;55.30;23.70;;;;;;;8.28;45.64;95612.19;5024644;28;20829;-82
2022/03/27 00:54:16;;;;;;;47.60;21.33;;;;;;;8.14;45.62;95579.31;5020667;28;20210;-81
2022/03/27 00:56:43;;;;;;;39.37;18.23;;;;;;;8.23;45.81;95604.91;5015867;28;20751;-82
2022/03/27 00:59:10;;;;;;;33.47;16.27;;;;;;;8.25;45.68;95604.75;5017240;28;20234;-81
2022/03/27 01:01:39;;;;;;;36.20;16.70;;;;;;;8.20;45.65;95602.69;5021376;28;20694;-81
2022/03/27 01:04:07;;;;;;;43.60;20.13;;;;;;;8.22;45.69;95607.69;5015001;28;20195;-81
2022/03/27 01:06:38;;;;;;;43.77;20.07;;;;;;;8.16;46.50;95593.69;5017470;28;20582;-85
2022/03/27 01:12:12;;;;;;;30.97;14.20;;;;;;;8.02;45.29;95586.72;5021831;28;20198;-85
2022/03/27 01:14:39;;;;;;;30.87;13.73;;;;;;;7.98;45.05;95586.28;5017439;28;20617;-86
2022/03/27 01:17:08;;;;;;;33.37;13.93;;;;;;;8.03;44.74;95596.06;5016916;28;20187;-86
2022/03/27 01:19:35;;;;;;;31.77;12.73;;;;;;;7.92;44.38;95586.97;5020398;28;20202;-87
2022/03/27 01:22:04;;;;;;;27.83;12.17;;;;;;;8.01;44.40;95595.47;5014936;28;20382;-87
2022/03/27 01:24:31;;;;;;;32.07;11.50;;;;;;;7.97;44.04;95601.97;5018682;28;20934;-86
2022/03/27 01:26:58;;;;;;;25.77;11.33;;;;;;;7.95;43.88;95591.81;5023795;28;20213;-86
2022/03/27 01:29:25;;;;;;;31.93;11.23;;;;;;;7.80;44.14;95577.25;5015936;28;20234;-87
2022/03/27 01:31:53;;;;;;;27.37;11.50;;;;;;;7.84;44.04;95586.25;5015167;28;20214;-83
2022/03/27 01:34:20;;;;;;;25.13;10.90;;;;;;;7.84;44.26;95594.03;5021348;28;20206;-84
2022/03/27 01:36:47;;;;;;;36.50;11.40;;;;;;;7.77;44.12;95595.69;5023117;28;20205;-84
2022/03/27 01:39:17;;;;;;;23.30;10.43;;;;;;;7.67;43.91;95579.66;5020031;28;20217;-84
2022/03/27 01:41:45;;;;;;;26.13;10.77;;;;;;;7.62;43.87;95594.91;5022868;28;20199;-84
2022/03/27 01:44:15;;;;;;;28.23;10.33;;;;;;;7.63;44.10;95588.72;5022865;28;20211;-85
2022/03/27 01:46:43;;;;;;;23.73;10.30;;;;;;;7.59;44.01;95596.03;5023274;28;20202;-84
2022/03/27 01:49:12;;;;;;;25.27;11.17;;;;;;;7.59;44.09;95592.66;5017311;28;20211;-85
2022/03/27 01:51:54;;;;;;;25.13;10.73;;;;;;;7.52;44.35;95595.16;5022666;28;20210;-84
2022/03/27 01:54:22;;;;;;;28.03;11.13;;;;;;;7.55;44.36;95587.03;5020593;28;20215;-84
2022/03/27 01:56:49;;;;;;;27.00;11.20;;;;;;;7.52;44.05;95584.78;5024102;28;20230;-86
2022/03/27 01:59:21;;;;;;;24.53;10.90;;;;;;;7.38;44.50;95581.22;5023303;28;20231;-87
2022/03/27 02:01:48;;;;;;;27.57;11.40;;;;;;;7.47;44.39;95591.47;5022369;28;20244;-86
2022/03/27 02:04:15;;;;;;;29.80;11.13;;;;;;;7.32;44.62;95575.94;5021985;28;20204;-89
2022/03/27 02:06:43;;;;;;;23.80;11.17;;;;;;;7.40;44.50;95594.75;5021928;28;20203;-88
2022/03/27 02:09:12;;;;;;;25.30;12.13;;;;;;;7.38;44.91;95594.16;5020017;28;20549;-88
2022/03/27 02:11:43;;;;;;;27.77;11.23;;;;;;;7.38;44.75;95595.91;5022778;28;20312;-84
2022/03/27 02:14:13;;;;;;;27.93;11.47;;;;;;;7.36;45.15;95592.69;5018467;28;20188;-82
2022/03/27 02:16:40;;;;;;;26.57;11.00;;;;;;;7.37;45.19;95599.47;5020474;28;20215;-82
2022/03/27 02:19:09;;;;;;;35.47;11.77;;;;;;;7.33;45.43;95596.44;5017619;28;20563;-81
2022/03/27 02:21:36;;;;;;;30.73;12.10;;;;;;;7.33;45.20;95595.66;5019155;28;20723;-87
2022/03/27 02:24:04;;;;;;;33.33;13.07;;;;;;;7.31;45.38;95595.81;5020639;28;20204;-89
2022/03/27 02:26:31;;;;;;;36.23;13.20;;;;;;;7.25;45.53;95599.09;5020924;28;20206;-86
2022/03/27 02:29:00;;;;;;;30.93;13.63;;;;;;;7.24;45.68;95602.63;5023747;28;20587;-88
2022/03/27 02:31:27;;;;;;;36.77;12.33;;;;;;;7.14;46.06;95603.84;5019864;28;20206;-82
2022/03/27 02:33:54;;;;;;;34.57;14.20;;;;;;;7.06;46.49;95603.94;5024661;28;20206;-81
2022/03/27 02:36:20;;;;;;;31.80;14.57;;;;;;;7.04;46.55;95605.88;5017448;28;20235;-82
2022/03/27 02:38:48;;;;;;;36.90;14.97;;;;;;;6.95;47.06;95607.72;5020664;28;20207;-80
2022/03/27 02:41:15;;;;;;;29.43;14.20;;;;;;;6.82;47.38;95604.88;5022173;28;20823;-81
2022/03/27 02:43:41;;;;;;;37.50;14.10;;;;;;;6.85;47.28;95610.53;5019926;28;20230;-87
2022/03/27 02:46:10;;;;;;;37.13;14.83;;;;;;;6.81;46.62;95611.81;5021269;28;20206;-87
2022/03/27 02:48:37;;;;;;;34.20;15.47;;;;;;;6.80;46.96;95617.19;5025486;28;20199;-87
2022/03/27 02:51:05;;;;;;;41.27;15.20;;;;;;;6.65;47.50;95591.28;5020609;28;20211;-87
2022/03/27 02:53:32;;;;;;;39.73;16.83;;;;;;;6.73;47.29;95618.81;5026541;28;20566;-84
2022/03/27 02:55:59;;;;;;;39.20;17.00;;;;;;;6.68;47.66;95626.28;5019602;28;20309;-83
2022/03/27 02:58:26;;;;;;;38.73;17.33;;;;;;;6.56;47.72;95625.03;5023109;28;20265;-81
2022/03/27 03:00:54;;;;;;;39.43;17.60;;;;;;;6.57;48.33;95611.16;5015059;28;20651;-81
2022/03/27 03:03:24;;;;;;;45.07;16.87;;;;;;;6.56;48.50;95618.09;5020588;28;20230;-83
2022/03/27 03:05:52;;;;;;;41.03;18.40;;;;;;;6.46;48.74;95625.28;5021270;28;20206;-83
2022/03/27 03:08:19;;;;;;;40.60;19.10;;;;;;;6.46;48.67;95611.56;5022778;28;20765;-83
2022/03/27 03:10:46;;;;;;;47.60;19.30;;;;;;;6.52;48.59;95621.22;5017684;28;20210;-82
2022/03/27 03:13:14;;;;;;;44.50;19.47;;;;;;;6.37;49.03;95618.53;5017705;28;20211;-82
2022/03/27 03:15:43;;;;;;;47.50;20.47;;;;;;;6.28;49.45;95606.63;5017983;28;20223;-82
2022/03/27 03:18:11;;;;;;;47.30;21.03;;;;;;;6.21;50.09;95624.56;5019713;28;20220;-83
2022/03/27 03:20:40;;;;;;;48.87;21.50;;;;;;;5.69;51.30;95620.78;5021167;28;20214;-82
2022/03/27 03:23:07;;;;;;;51.83;21.10;;;;;;;5.18;52.42;95616.81;5016871;28;20676;-83
2022/03/27 03:25:34;;;;;;;40.57;20.57;;;;;;;5.10;52.76;95633.06;5017777;28;20232;-83
2022/03/27 03:28:01;;;;;;;38.03;18.00;;;;;;;5.23;52.89;95626.63;5021695;28;20219;-81
2022/03/27 03:30:28;;;;;;;32.27;16.17;;;;;;;5.32;51.34;95615.34;5022434;28;20210;-82
2022/03/27 03:32:55;;;;;;;41.27;16.93;;;;;;;5.52;52.00;95625.16;5018032;28;20562;-82
2022/03/27 03:35:22;;;;;;;41.30;18.47;;;;;;;5.65;51.67;95625.47;5020407;28;20948;-83
2022/03/27 03:37:50;;;;;;;40.87;19.70;;;;;;;5.66;51.07;95614.19;5020339;28;20301;-83
2022/03/27 03:40:18;;;;;;;42.20;19.13;;;;;;;5.71;51.07;95618.88;5019185;28;20202;-82
2022/03/27 03:42:45;;;;;;;47.40;19.50;;;;;;;5.80;51.07;95622.22;5016421;28;20201;-82
2022/03/27 03:45:12;;;;;;;40.47;20.07;;;;;;;5.78;51.30;95622.38;5021058;28;20573;-83
2022/03/27 03:47:39;;;;;;;44.93;20.70;;;;;;;5.85;51.38;95614.81;5017042;28;20234;-84
2022/03/27 03:50:06;;;;;;;42.80;20.47;;;;;;;5.89;51.12;95621.28;5016605;28;20204;-85
2022/03/27 03:52:33;;;;;;;45.23;22.40;;;;;;;5.70;50.84;95610.31;5020206;28;20208;-84
2022/03/27 03:55:03;;;;;;;53.80;25.70;;;;;;;5.73;52.11;95630.63;5022289;28;20222;-85
2022/03/27 03:57:30;;;;;;;80.13;40.87;;;;;;;5.81;51.53;95634.94;5017299;28;20199;-84
2022/03/27 04:00:07;;;;;;;97.10;44.03;;;;;;;5.65;52.06;95611.78;5018497;28;20225;-83
2022/03/27 04:02:34;;;;;;;66.23;30.77;;;;;;;5.76;52.09;95626.09;5014659;28;20217;-84
2022/03/27 04:05:02;;;;;;;78.83;33.70;;;;;;;5.71;51.17;95617.06;5025694;28;20341;-84
2022/03/27 04:07:29;;;;;;;76.63;34.53;;;;;;;5.73;51.58;95637.56;5016093;28;20203;-84
2022/03/27 04:09:56;;;;;;;85.00;41.43;;;;;;;5.73;52.38;95651.25;5019613;28;20208;-84
2022/03/27 04:12:24;;;;;;;86.77;40.77;;;;;;;5.65;52.77;95647.88;5017884;28;20296;-84
2022/03/27 04:14:51;;;;;;;87.60;42.37;;;;;;;5.68;51.92;95645.75;5021633;28;20202;-83
2022/03/27 04:17:17;;;;;;;95.73;45.30;;;;;;;5.58;52.53;95641.75;5015486;28;20222;-84
2022/03/27 04:19:44;;;;;;;109.67;47.40;;;;;;;5.62;52.58;95661.09;5019431;28;20217;-84
2022/03/27 04:22:13;;;;;;;102.17;47.30;;;;;;;5.61;52.84;95657.72;5018666;28;20308;-84
2022/03/27 04:24:40;;;;;;;96.93;49.53;;;;;;;5.60;51.77;95655.28;5020667;28;20297;-83
2022/03/27 04:27:07;;;;;;;107.50;49.37;;;;;;;5.47;52.13;95636.94;5017425;28;20209;-84
2022/03/27 04:29:48;;;;;;;90.40;42.90;;;;;;;5.65;51.71;95658.19;5020998;28;20586;-85
2022/03/27 04:32:16;;;;;;;118.13;52.43;;;;;;;5.59;51.94;95656.25;5021836;28;20209;-84
2022/03/27 04:34:43;;;;;;;105.73;49.63;;;;;;;5.63;53.02;95660.91;5021111;28;20561;-84
2022/03/27 04:37:11;;;;;;;101.67;43.93;;;;;;;5.61;52.72;95668.03;5021870;28;20218;-81
2022/03/27 04:39:38;;;;;;;89.63;42.90;;;;;;;5.36;52.59;95627.75;5022291;28;20206;-82
2022/03/27 04:42:06;;;;;;;84.83;40.80;;;;;;;5.50;52.39;95665.78;5016696;28;20203;-83
2022/03/27 04:44:34;;;;;;;85.03;43.57;;;;;;;5.59;52.50;95679.47;5022984;28;20245;-82
2022/03/27 04:47:03;;;;;;;101.73;45.60;;;;;;;5.57;52.73;95684.78;5021929;28;20217;-83
2022/03/27 04:49:30;;;;;;;101.30;44.17;;;;;;;5.60;53.00;95683.63;5016052;28;20228;-82
2022/03/27 04:51:57;;;;;;;110.00;43.73;;;;;;;5.56;52.91;95685.75;5018603;28;20666;-81
2022/03/27 04:54:24;;;;;;;98.53;43.73;;;;;;;5.55;52.98;95684.13;5025559;28;20191;-82
2022/03/27 04:56:52;;;;;;;91.90;42.67;;;;;;;5.62;52.72;95698.00;5017844;28;20238;-81
2022/03/27 04:59:18;;;;;;;84.40;38.93;;;;;;;5.61;53.01;95704.13;5014887;28;20246;-81
2022/03/27 05:01:45;;;;;;;89.27;37.87;;;;;;;5.40;53.09;95680.59;5025568;28;20211;-82
2022/03/27 05:04:17;;;;;;;69.87;32.33;;;;;;;5.58;53.26;95704.44;5022724;28;20203;-80
2022/03/27 05:06:43;;;;;;;78.37;33.07;;;;;;;5.64;53.16;95705.56;5017452;28;20771;-73
2022/03/27 05:09:10;;;;;;;85.50;34.53;;;;;;;5.64;53.18;95697.81;5020290;28;20210;-74
2022/03/27 05:11:38;;;;;;;73.30;33.13;;;;;;;5.68;54.06;95706.88;5017606;28;20204;-71
2022/03/27 05:14:05;;;;;;;68.50;32.73;;;;;;;5.71;53.19;95711.69;5017677;28;20210;-71
2022/03/27 05:16:32;;;;;;;63.43;27.03;;;;;;;5.76;53.52;95711.19;5020168;28;20214;-72
2022/03/27 05:18:59;;;;;;;54.47;24.83;;;;;;;5.70;53.85;95700.56;5020292;28;20208;-72
2022/03/27 05:21:27;;;;;;;48.67;25.07;;;;;;;5.82;53.92;95713.13;5017946;28;20588;-71
2022/03/27 05:23:54;;;;;;;48.53;22.70;;;;;;;5.97;53.32;95708.97;5016713;28;20231;-71
2022/03/27 05:26:21;;;;;;;31.57;15.37;;;;;;;6.00;52.89;95714.59;5019044;28;20199;-72
2022/03/27 05:28:48;;;;;;;26.43;13.60;;;;;;;6.11;52.07;95711.69;5016712;28;20292;-71
2022/03/27 05:31:15;;;;;;;28.67;14.57;;;;;;;6.18;51.59;95715.22;5019473;28;20205;-78
2022/03/27 05:33:42;;;;;;;34.57;15.17;;;;;;;6.25;50.96;95710.19;5017641;28;20198;-80
2022/03/27 05:36:10;;;;;;;29.87;15.07;;;;;;;6.29;51.10;95711.50;5020064;28;20701;-83
2022/03/27 05:38:39;;;;;;;31.53;15.60;;;;;;;6.12;51.08;95679.72;5021022;28;20294;-84
2022/03/27 05:41:06;;;;;;;36.57;15.10;;;;;;;6.24;51.53;95685.34;5014351;28;20207;-84
2022/03/27 05:43:33;;;;;;;32.67;15.10;;;;;;;6.47;51.41;95716.41;5013115;28;20210;-85
2022/03/27 05:46:00;;;;;;;32.27;14.97;;;;;;;6.52;51.36;95727.06;5015023;28;20211;-85
2022/03/27 05:48:27;;;;;;;33.37;15.63;;;;;;;6.50;51.09;95713.50;5015229;28;20578;-84
2022/03/27 05:50:54;;;;;;;36.93;15.13;;;;;;;6.41;51.85;95697.22;5013300;28;20310;-82
2022/03/27 05:53:21;;;;;;;30.53;14.03;;;;;;;6.56;51.00;95712.84;5019410;28;20195;-89
2022/03/27 05:55:50;;;;;;;29.77;13.60;;;;;;;6.70;51.37;95722.47;5019623;28;20261;-79
2022/03/27 05:58:17;;;;;;;34.93;14.90;;;;;;;6.36;52.04;95715.00;5015984;28;20237;-85
2022/03/27 06:00:46;;;;;;;31.20;14.40;;;;;;;6.18;52.48;95727.31;5018731;28;20241;-85
